Airport METAR Information

LTBA 142250Z 01004KT CAVOK 16/14 Q1020 NOSIG

VATSIM Livefeed

Card image cap

ATC Bookings

Position Full Name Date Time (UTC)
LTC_N_CTR Nick Marinov 14/10/2019 1700 ‐ 1900
LTC_S_CTR Harry Sugden 14/10/2019 1700 ‐ 2000
LTC_S_CTR Nick Marinov 15/10/2019 1700 ‐ 1900

Card image cap

Active ATC

No controllers online

Blog

Read our latest news and get to know us better.